Maple Lake, MN

10:21 AM CDT on October 17, 2017 (GMT -0500)
Maple Lake Municipal

Weather History for KMGG - March, 2013

Change the Weather History Date:

Tuesday, March 19, 2013

  Actual Average (KSTC) Record (KSTC)
Temperature  
Mean Temperature 11 °F -  
Max Temperature 19 °F 40 °F 78 °F (2012)
Min Temperature 3 °F 22 °F -12 °F (1965)
Degree Days  
Heating Degree Days 54    
Moisture  
Dew Point 1 °F    
Average Humidity 66    
Maximum Humidity 82    
Minimum Humidity 46    
Precipitation  
Precipitation 0.00 in - - ()
Sea Level Pressure  
Sea Level Pressure 30.04 in    
Wind  
Wind Speed 15 mph (WNW)    
Max Wind Speed 21 mph    
Max Gust Speed 29 mph    
Visibility 10 miles    
Events      
Averages and records for this station are not official NWS values.
T = Trace of Precipitation, MM = Missing Value Source: NWS Daily Summary

Daily Weather History Graph

Daily Weather History Graph

Search for Another Location

Airport or City:

Trip Planner

Search our weather history database for the weather conditions in past years. The results will help you decide how hot, cold, wet, or windy it might be!

Date:

Astronomy

Mar. 19, 2013 Rise Set
Actual Time 7:20 AM CDT 7:27 PM CDT
Civil Twilight 6:51 AM CDT 7:56 PM CDT
Nautical Twilight 6:16 AM CDT 8:31 PM CDT
Astronomical Twilight 5:41 AM CDT 9:06 PM CDT
Moon 11:56 AM CDT (3/19) 2:30 AM CDT (3/19)
Length of Visible Light 13h 05m
Length of Day
12h 07m
Waxing Crescent, 50% of the Moon is Illuminated
Mar 19
Waxing Crescent
Mar 19
First Quarter
Mar 27
Full
Apr 2
Last Quarter
Apr 10
New

Hourly Weather History & Observations

Time (CDT) Temp. Windchill Dew Point Humidity Pressure Visibility Wind Dir Wind Speed Gust Speed Precip Events Conditions
12:15 AM 9.1 °F -9.3 °F 4.1 °F 80% 29.83 in 10.0 mi West 18.4 mph 25.3 mph N/A   Clear
12:36 AM 9.0 °F -9.0 °F 4.1 °F 81% 29.84 in 10.0 mi WNW 17.3 mph 26.5 mph N/A   Clear
1:16 AM 8.6 °F -10.0 °F 3.7 °F 81% 29.84 in 10.0 mi WNW 18.4 mph 24.2 mph N/A   Clear
1:35 AM 8.4 °F -10.3 °F 3.2 °F 79% 29.84 in 10.0 mi WNW 18.4 mph 26.5 mph N/A   Clear
1:56 AM 8.4 °F -9.7 °F 3.2 °F 79% 29.85 in 10.0 mi WNW 17.3 mph 28.8 mph N/A   Clear
2:15 AM 8.2 °F -8.8 °F 3.2 °F 80% 29.86 in 10.0 mi West 15.0 mph 23.0 mph N/A   Clear
2:35 AM 7.5 °F -9.1 °F 2.7 °F 81% 29.87 in 10.0 mi WNW 13.8 mph - N/A   Clear
2:56 AM 6.8 °F -10.7 °F 2.3 °F 82% 29.87 in 10.0 mi WNW 15.0 mph 20.7 mph N/A   Clear
3:15 AM 7.2 °F -10.2 °F 2.3 °F 80% 29.87 in 10.0 mi WNW 15.0 mph 20.7 mph N/A   Clear
3:35 AM 6.8 °F -10.0 °F 2.1 °F 81% 29.88 in 10.0 mi WNW 13.8 mph 20.7 mph N/A   Clear
3:56 AM 6.8 °F -10.0 °F 1.9 °F 80% 29.88 in 10.0 mi WNW 13.8 mph 20.7 mph N/A   Clear
4:16 AM 6.6 °F -8.8 °F 1.6 °F 80% 29.89 in 10.0 mi WNW 11.5 mph - N/A   Clear
4:36 AM 6.4 °F -11.1 °F 1.4 °F 80% 29.90 in 10.0 mi WNW 15.0 mph 20.7 mph N/A   Clear
4:56 AM 5.7 °F -12.0 °F 0.9 °F 80% 29.90 in 10.0 mi WNW 15.0 mph 21.9 mph N/A   Clear
5:15 AM 5.5 °F -11.6 °F 0.5 °F 80% 29.91 in 10.0 mi WNW 13.8 mph 20.7 mph N/A   Clear
5:36 AM 5.5 °F -11.6 °F 0.3 °F 79% 29.92 in 10.0 mi WNW 13.8 mph 21.9 mph N/A   Clear
5:55 AM 5.0 °F -13.6 °F -0.2 °F 79% 29.93 in 10.0 mi WNW 16.1 mph 21.9 mph N/A   Clear
6:16 AM 4.5 °F -13.0 °F -0.6 °F 80% 29.94 in 10.0 mi West 13.8 mph 18.4 mph N/A   Clear
6:55 AM 3.9 °F -13.0 °F -1.3 °F 79% 29.97 in 10.0 mi West 12.7 mph - N/A   Clear
7:16 AM 3.9 °F -13.0 °F -1.3 °F 79% 29.98 in 10.0 mi West 12.7 mph - N/A   Clear
7:36 AM 3.9 °F -13.7 °F -1.5 °F 78% 29.98 in 10.0 mi WNW 13.8 mph 18.4 mph N/A   Clear
7:55 AM 4.1 °F -13.4 °F -1.5 °F 78% 29.99 in 10.0 mi WNW 13.8 mph - N/A   Clear
8:15 AM 4.8 °F -13.2 °F -1.5 °F 75% 30.00 in 10.0 mi WNW 15.0 mph - N/A   Clear
8:36 AM 5.5 °F -11.6 °F -1.3 °F 73% 30.01 in 10.0 mi WNW 13.8 mph - N/A   Clear
8:55 AM 5.9 °F -11.2 °F -1.1 °F 73% 30.01 in 10.0 mi West 13.8 mph - N/A   Clear
9:15 AM 6.6 °F -9.5 °F -0.9 °F 71% 30.02 in 10.0 mi WNW 12.7 mph 19.6 mph N/A   Clear
9:35 AM 7.2 °F -8.9 °F -0.9 °F 69% 30.03 in 10.0 mi WNW 12.7 mph 20.7 mph N/A   Clear
9:56 AM 8.1 °F -5.3 °F -0.4 °F 68% 30.05 in 10.0 mi WNW 9.2 mph - N/A   Clear
10:16 AM 9.3 °F -6.1 °F -0.0 °F 66% 30.05 in 10.0 mi WNW 12.7 mph - N/A   Clear
10:35 AM 10.0 °F -5.9 °F 0.3 °F 65% 30.06 in 10.0 mi WNW 13.8 mph - N/A   Clear
10:56 AM 10.9 °F -4.7 °F 0.7 °F 63% 30.06 in 10.0 mi West 13.8 mph 18.4 mph N/A   Clear
11:16 AM 11.7 °F -1.7 °F 1.0 °F 62% 30.06 in 10.0 mi WNW 10.4 mph - N/A   Clear
11:36 AM 12.2 °F -3.1 °F 1.2 °F 61% 30.07 in 10.0 mi WNW 13.8 mph - N/A   Clear
11:55 AM 12.9 °F -0.9 °F 1.2 °F 60% 30.07 in 10.0 mi WNW 11.5 mph 18.4 mph N/A   Clear
12:16 PM 14.0 °F -0.8 °F 1.9 °F 59% 30.07 in 10.0 mi WNW 13.8 mph - N/A   Clear
12:36 PM 14.7 °F 0.7 °F 2.5 °F 58% 30.08 in 10.0 mi West 12.7 mph - N/A   Clear
12:56 PM 15.6 °F 1.8 °F 3.2 °F 58% 30.07 in 10.0 mi WNW 12.7 mph - N/A   Clear
1:16 PM 16.7 °F 3.8 °F 3.7 °F 57% 30.07 in 10.0 mi West 11.5 mph - N/A   Clear
1:35 PM 17.2 °F 5.2 °F 4.1 °F 56% 30.07 in 10.0 mi West 10.4 mph - N/A   Clear
1:56 PM 17.8 °F 3.4 °F 4.6 °F 57% 30.08 in 10.0 mi West 15.0 mph - N/A   Scattered Clouds
2:16 PM 18.0 °F 3.6 °F 4.6 °F 56% 30.08 in 10.0 mi West 15.0 mph 21.9 mph N/A   Clear
2:35 PM 18.5 °F 2.9 °F 5.2 °F 56% 30.09 in 10.0 mi West 18.4 mph - N/A   Clear
2:56 PM 18.5 °F 3.8 °F 5.2 °F 56% 30.09 in 10.0 mi West 16.1 mph 21.9 mph N/A   Clear
3:16 PM 18.5 °F 4.3 °F 5.0 °F 56% 30.09 in 10.0 mi West 15.0 mph 23.0 mph N/A   Clear
3:36 PM 19.2 °F 5.3 °F 5.4 °F 55% 30.09 in 10.0 mi WNW 15.0 mph 24.2 mph N/A   Clear
3:55 PM 19.4 °F 5.0 °F 5.4 °F 55% 30.09 in 10.0 mi West 16.1 mph 23.0 mph N/A   Mostly Cloudy
4:16 PM 19.4 °F 5.5 °F 5.4 °F 55% 30.10 in 10.0 mi WNW 15.0 mph 24.2 mph N/A   Overcast
4:35 PM 19.4 °F 5.5 °F 3.4 °F 50% 30.10 in 10.0 mi WNW 15.0 mph 25.3 mph N/A   Scattered Clouds
4:56 PM 19.0 °F 3.6 °F 2.7 °F 49% 30.11 in 10.0 mi WNW 18.4 mph 26.5 mph N/A   Clear
5:16 PM 18.5 °F 2.0 °F 1.9 °F 49% 30.12 in 10.0 mi WNW 20.7 mph 25.3 mph N/A   Clear
5:36 PM 18.1 °F 3.4 °F 1.9 °F 49% 30.13 in 10.0 mi WNW 16.1 mph 26.5 mph N/A   Clear
5:55 PM 17.4 °F 1.0 °F -0.2 °F 46% 30.13 in 10.0 mi WNW 19.6 mph 27.6 mph N/A   Clear
6:16 PM 16.7 °F 0.1 °F 0.3 °F 49% 30.14 in 10.0 mi WNW 19.6 mph 25.3 mph N/A   Clear
6:36 PM 16.3 °F 1.6 °F 0.5 °F 50% 30.15 in 10.0 mi WNW 15.0 mph 24.2 mph N/A   Clear
6:56 PM 15.1 °F -1.1 °F -0.9 °F 49% 30.16 in 10.0 mi WNW 17.3 mph 26.5 mph N/A   Clear
7:16 PM 14.0 °F -3.4 °F -0.0 °F 54% 30.17 in 10.0 mi WNW 19.6 mph 23.0 mph N/A   Clear
7:36 PM 13.3 °F -1.1 °F -0.0 °F 55% 30.17 in 10.0 mi WNW 12.7 mph 21.9 mph N/A   Clear
7:56 PM 12.0 °F -4.5 °F 0.5 °F 60% 30.18 in 10.0 mi WNW 16.1 mph 20.7 mph N/A   Clear
8:16 PM 11.3 °F -4.3 °F 0.5 °F 62% 30.18 in 10.0 mi WNW 13.8 mph 18.4 mph N/A   Clear
8:56 PM 10.2 °F -6.3 °F -0.0 °F 63% 30.19 in 10.0 mi WNW 15.0 mph - N/A   Clear
9:15 PM 9.5 °F -5.9 °F -0.4 °F 64% 30.19 in 10.0 mi WNW 12.7 mph 23.0 mph N/A   Clear
9:36 PM 9.1 °F -5.6 °F -1.3 °F 63% 30.19 in 10.0 mi WNW 11.5 mph - N/A   Clear
9:56 PM 9.1 °F -7.7 °F -2.2 °F 60% 30.20 in 10.0 mi WNW 15.0 mph 20.7 mph N/A   Clear
10:15 PM 8.6 °F -7.7 °F -3.1 °F 59% 30.20 in 10.0 mi WNW 13.8 mph 18.4 mph N/A   Clear
10:36 PM 8.6 °F -6.3 °F -3.3 °F 59% 30.20 in 10.0 mi WNW 11.5 mph 18.4 mph N/A   Clear
10:55 PM 8.4 °F -6.5 °F -2.9 °F 60% 30.20 in 10.0 mi WNW 11.5 mph 18.4 mph N/A   Clear
11:16 PM 8.2 °F -8.2 °F -2.4 °F 62% 30.20 in 10.0 mi WNW 13.8 mph 18.4 mph N/A   Clear
11:36 PM 8.1 °F -9.0 °F -2.4 °F 62% 30.20 in 10.0 mi WNW 15.0 mph 19.6 mph N/A   Clear
11:56 PM 7.9 °F -9.3 °F -2.4 °F 63% 30.20 in 10.0 mi WNW 15.0 mph 24.2 mph N/A   Clear